»·PEaware :: WAT306 KASE-KSNA

WAT306 :: KASE-KSNA

FLIGHT INFORMATION

Flight Status: Arrived
Operator:
Walker Air Transport
More flights by this operator :: More flights under this callsign
Pilot: Ethan S. (29221)
Aircraft: DASSAULT AVIATION FALCON 50
(FA50)
More flights by this aircraft type
Origin: KASE Aspen-Pitkin Co/Sardy
United States
Destination: KSNA John Wayne-Orange Co
United States
More flights between these airports :: More routes between these airports
Route: LINDZ9 JNC NATEE DSNEE4
File this flight plan on PilotEdge
Remarks:
Altitude:
(Current/Filed)
38,000ft
Speed:
(Current/Filed)
480kts
Departed: 21-Feb-21 06:13 PM
Arrived: 21-Feb-21 07:40 PM
Distance/Time
Traveled:
626nm/1:27
Distance/Time
To Go:
Arrived

Flight Plot

Page will automatically refresh every two minutes.

Flight plan parsing failed; only flown route is shown


Map Options




Map Legend


Flown Route
Filed Route
Departure Airport
Arrival Airport
Navaid (VOR, NDB)
Fix

Horizontal Profiles

Position Reports

Time Latitude Longitude Heading Altitude Ground
Speed
21-Feb-21 17:54 39.222423 -106.865650 244 7844ft 0kts
21-Feb-21 17:56 39.222423 -106.865650 244 7844ft 0kts
21-Feb-21 17:56 39.222423 -106.865650 244 7844ft 0kts
21-Feb-21 17:57 39.222423 -106.865650 244 7844ft 0kts
21-Feb-21 17:58 39.222423 -106.865650 244 7844ft 0kts
21-Feb-21 17:59 39.222423 -106.865650 244 7844ft 0kts
21-Feb-21 18:00 39.222423 -106.865650 244 7844ft 0kts
21-Feb-21 18:01 39.222423 -106.865650 244 7844ft 0kts
21-Feb-21 18:02 39.222423 -106.865650 244 7844ft 0kts
21-Feb-21 18:03 39.222423 -106.865650 244 7844ft 0kts
21-Feb-21 18:04 39.222423 -106.865650 244 7844ft 0kts
21-Feb-21 18:05 39.222423 -106.865650 244 7844ft 0kts
21-Feb-21 18:06 39.222177 -106.866313 244 7844ft 5kts
21-Feb-21 18:07 39.220132 -106.866165 159 7844ft 12kts
21-Feb-21 18:08 39.216507 -106.864452 159 7844ft 15kts
21-Feb-21 18:09 39.212749 -106.862663 159 7844ft 11kts
21-Feb-21 18:10 39.212312 -106.862465 167 7844ft 0kts
21-Feb-21 18:11 39.211996 -106.862541 212 7844ft 8kts
21-Feb-21 18:12 39.235707 -106.874740 344 8721ft 182kts
21-Feb-21 18:13 39.269188 -106.940019 281 11901ft 278kts
21-Feb-21 18:14 39.300463 -107.044147 315 14441ft 334kts
21-Feb-21 18:15 39.370747 -107.138341 299 17038ft 348kts
21-Feb-21 18:16 39.368462 -107.264801 259 19926ft 361kts
21-Feb-21 18:17 39.342914 -107.394195 262 22588ft 382kts
21-Feb-21 18:18 39.316028 -107.531196 263 24610ft 406kts
21-Feb-21 18:19 39.287915 -107.673131 264 26920ft 413kts
21-Feb-21 18:20 39.259192 -107.817409 265 28956ft 422kts
21-Feb-21 18:21 39.229511 -107.965428 265 30780ft 431kts
21-Feb-21 18:22 39.198848 -108.117217 266 32403ft 443kts
21-Feb-21 18:23 39.167158 -108.272955 265 33906ft 455kts
21-Feb-21 18:24 39.134781 -108.430511 265 35850ft 452kts
21-Feb-21 18:25 39.102556 -108.586602 265 37532ft 452kts
21-Feb-21 18:26 39.069538 -108.744264 262 38329ft 475kts
21-Feb-21 18:27 39.005966 -108.905364 245 38327ft 524kts
21-Feb-21 18:28 38.929724 -109.067065 245 38327ft 534kts
21-Feb-21 18:29 38.852341 -109.229433 245 38302ft 534kts
21-Feb-21 18:30 38.774728 -109.391304 245 38307ft 534kts
21-Feb-21 18:31 38.696685 -109.553281 245 38307ft 534kts
21-Feb-21 18:32 38.618604 -109.714537 244 38308ft 534kts
21-Feb-21 18:33 38.540312 -109.875406 244 38312ft 535kts
21-Feb-21 18:34 38.461639 -110.036248 244 38312ft 535kts
21-Feb-21 18:35 38.382836 -110.196537 244 38319ft 536kts
21-Feb-21 18:36 38.303496 -110.357136 244 38363ft 536kts
21-Feb-21 18:37 38.223599 -110.518075 244 38373ft 537kts
21-Feb-21 18:38 38.143378 -110.678849 244 38376ft 537kts
21-Feb-21 18:39 38.063136 -110.838864 243 38394ft 537kts
21-Feb-21 18:40 37.982867 -110.998153 243 38393ft 537kts
21-Feb-21 18:41 37.902364 -111.157137 243 38396ft 536kts
21-Feb-21 18:42 37.821914 -111.315226 243 38378ft 533kts
21-Feb-21 18:43 37.741643 -111.472230 243 38379ft 532kts
21-Feb-21 18:44 37.660136 -111.630900 243 38383ft 531kts
21-Feb-21 18:45 37.579459 -111.787209 242 38380ft 532kts
21-Feb-21 18:46 37.498932 -111.942845 242 38384ft 532kts
21-Feb-21 18:47 37.417701 -112.098676 242 38386ft 532kts
21-Feb-21 18:48 37.335590 -112.255446 242 38395ft 533kts
21-Feb-21 18:49 37.253750 -112.410897 242 38409ft 533kts
21-Feb-21 18:50 37.171811 -112.565920 242 38412ft 534kts
21-Feb-21 18:51 37.089461 -112.721027 241 38408ft 534kts
21-Feb-21 18:52 37.007052 -112.875510 241 38411ft 535kts
21-Feb-21 18:53 36.924186 -113.030174 240 38411ft 539kts
21-Feb-21 18:54 36.840334 -113.185926 240 38393ft 543kts
21-Feb-21 18:55 36.755877 -113.342059 240 38398ft 544kts
21-Feb-21 18:56 36.671218 -113.497842 240 38382ft 546kts
21-Feb-21 18:57 36.585987 -113.653952 239 38380ft 547kts
21-Feb-21 18:58 36.500412 -113.810001 239 38373ft 547kts
21-Feb-21 18:59 36.414606 -113.965756 239 38376ft 547kts
21-Feb-21 19:00 36.328496 -114.121342 240 38384ft 548kts
21-Feb-21 19:01 36.242133 -114.276678 239 38390ft 548kts
21-Feb-21 19:02 36.155715 -114.431423 239 38395ft 549kts
21-Feb-21 19:03 36.068826 -114.586298 239 38398ft 550kts
21-Feb-21 19:04 35.981471 -114.741292 239 38392ft 550kts
21-Feb-21 19:05 35.893791 -114.896156 239 38391ft 550kts
21-Feb-21 19:06 35.806255 -115.050061 238 38381ft 549kts
21-Feb-21 19:07 35.718741 -115.203265 238 38398ft 547kts
21-Feb-21 19:08 35.630489 -115.354880 236 38399ft 548kts
21-Feb-21 19:09 35.530587 -115.496250 230 38403ft 551kts
21-Feb-21 19:10 35.427014 -115.634555 230 38407ft 551kts
21-Feb-21 19:11 35.323591 -115.772788 230 38401ft 551kts
21-Feb-21 19:12 35.219822 -115.910938 229 37450ft 553kts
21-Feb-21 19:13 35.115377 -116.042443 228 34485ft 530kts
21-Feb-21 19:14 35.014638 -116.168871 229 31548ft 513kts
21-Feb-21 19:15 34.917112 -116.290990 228 28614ft 491kts
21-Feb-21 19:16 34.829740 -116.401187 229 28364ft 421kts
21-Feb-21 19:17 34.745220 -116.509137 229 26567ft 457kts
21-Feb-21 19:18 34.657108 -116.610761 221 24599ft 421kts
21-Feb-21 19:19 34.569030 -116.696559 221 22322ft 396kts
21-Feb-21 19:20 34.487094 -116.779431 225 20276ft 367kts
21-Feb-21 19:21 34.415087 -116.863172 226 18186ft 350kts
21-Feb-21 19:22 34.343197 -116.946540 226 16000ft 337kts
21-Feb-21 19:23 34.277306 -117.021938 223 14284ft 307kts
21-Feb-21 19:24 34.211722 -117.073597 213 13752ft 281kts
21-Feb-21 19:25 34.142259 -117.118272 206 12538ft 282kts
21-Feb-21 19:26 34.072473 -117.155594 206 12033ft 266kts
21-Feb-21 19:27 34.004110 -117.193023 213 12015ft 273kts
21-Feb-21 19:28 33.952052 -117.258203 232 11154ft 270kts
21-Feb-21 19:29 33.903679 -117.326578 232 9858ft 266kts
21-Feb-21 19:30 33.856740 -117.392979 232 8542ft 253kts
21-Feb-21 19:31 33.814893 -117.458205 249 8019ft 252kts
21-Feb-21 19:32 33.797495 -117.538224 274 7603ft 230kts
21-Feb-21 19:33 33.799161 -117.609570 275 7599ft 196kts
21-Feb-21 19:34 33.800870 -117.676999 274 6683ft 220kts
21-Feb-21 19:35 33.802750 -117.742096 269 5009ft 221kts
21-Feb-21 19:36 33.777637 -117.807463 222 3058ft 221kts
21-Feb-21 19:37 33.727919 -117.835696 209 1161ft 147kts
21-Feb-21 19:38 33.694765 -117.856729 210 399ft 131kts
21-Feb-21 19:39 33.671116 -117.871731 207 63ft 21kts
21-Feb-21 19:40 33.669119 -117.871509 115 63ft 0kts
21-Feb-21 19:41 33.669525 -117.870500 40 63ft 12kts
21-Feb-21 19:42 33.672302 -117.867997 27 63ft 7kts
21-Feb-21 19:43 33.672323 -117.866751 27 63ft 0kts
21-Feb-21 19:44 33.672323 -117.866751 27 63ft 0kts

Navigation Log

Ident Type
Flight plan parsing failed, navigation log unavailable